sensor_id;sensor_type;location;lat;lon;timestamp;pressure;altitude;pressure_sealevel;temperature;humidity
33845;BME280;20145;43.118;25.694;2023-05-19T00:00:55;99524.56;;;15.01;98.77
33845;BME280;20145;43.118;25.694;2023-05-19T00:03:21;99520.44;;;14.93;98.74
33845;BME280;20145;43.118;25.694;2023-05-19T00:05:47;99523.72;;;15.00;98.73
33845;BME280;20145;43.118;25.694;2023-05-19T00:08:15;99522.09;;;14.96;99.26
33845;BME280;20145;43.118;25.694;2023-05-19T00:10:42;99523.00;;;14.95;99.46
33845;BME280;20145;43.118;25.694;2023-05-19T00:13:08;99525.78;;;14.89;99.26
33845;BME280;20145;43.118;25.694;2023-05-19T00:15:34;99520.66;;;14.86;100.00
33845;BME280;20145;43.118;25.694;2023-05-19T00:18:00;99523.25;;;14.86;100.00
33845;BME280;20145;43.118;25.694;2023-05-19T00:20:26;99513.09;;;14.78;100.00
33845;BME280;20145;43.118;25.694;2023-05-19T00:22:51;99521.78;;;14.77;99.88
33845;BME280;20145;43.118;25.694;2023-05-19T00:25:17;99510.69;;;14.70;99.65
33845;BME280;20145;43.118;25.694;2023-05-19T00:27:42;99515.84;;;14.72;100.00
33845;BME280;20145;43.118;25.694;2023-05-19T00:30:08;99514.03;;;14.74;100.00
33845;BME280;20145;43.118;25.694;2023-05-19T00:32:34;99524.53;;;14.71;100.00
33845;BME280;20145;43.118;25.694;2023-05-19T00:35:00;99530.78;;;14.64;100.00
33845;BME280;20145;43.118;25.694;2023-05-19T00:37:25;99523.84;;;14.64;100.00
33845;BME280;20145;43.118;25.694;2023-05-19T00:39:52;99523.88;;;14.63;100.00
33845;BME280;20145;43.118;25.694;2023-05-19T00:42:17;99533.59;;;14.56;100.00
33845;BME280;20145;43.118;25.694;2023-05-19T00:44:44;99528.53;;;14.50;100.00
33845;BME280;20145;43.118;25.694;2023-05-19T00:47:09;99521.69;;;14.46;100.00
33845;BME280;20145;43.118;25.694;2023-05-19T00:49:35;99525.09;;;14.48;100.00
33845;BME280;20145;43.118;25.694;2023-05-19T00:52:01;99522.44;;;14.51;100.00
33845;BME280;20145;43.118;25.694;2023-05-19T00:54:27;99523.34;;;14.48;100.00
33845;BME280;20145;43.118;25.694;2023-05-19T00:56:54;99527.69;;;14.49;100.00
33845;BME280;20145;43.118;25.694;2023-05-19T00:59:21;99526.94;;;14.44;100.00
33845;BME280;20145;43.118;25.694;2023-05-19T01:01:47;99513.41;;;14.32;100.00
33845;BME280;20145;43.118;25.694;2023-05-19T01:04:18;99520.19;;;14.37;100.00
33845;BME280;20145;43.118;25.694;2023-05-19T01:06:48;99517.75;;;14.31;100.00
33845;BME280;20145;43.118;25.694;2023-05-19T01:09:20;99514.13;;;14.38;100.00
33845;BME280;20145;43.118;25.694;2023-05-19T01:11:47;99513.38;;;14.33;100.00
33845;BME280;20145;43.118;25.694;2023-05-19T01:14:13;99516.78;;;14.35;100.00
33845;BME280;20145;43.118;25.694;2023-05-19T01:16:43;99515.06;;;14.34;100.00
33845;BME280;20145;43.118;25.694;2023-05-19T01:22:17;99512.38;;;14.39;99.14
33845;BME280;20145;43.118;25.694;2023-05-19T01:33:01;99514.19;;;14.35;100.00
33845;BME280;20145;43.118;25.694;2023-05-19T01:35:28;99522.69;;;14.40;98.46
33845;BME280;20145;43.118;25.694;2023-05-19T01:37:56;99526.84;;;14.47;98.76
33845;BME280;20145;43.118;25.694;2023-05-19T01:40:24;99528.31;;;14.59;98.18
33845;BME280;20145;43.118;25.694;2023-05-19T01:42:52;99533.41;;;14.62;98.46
33845;BME280;20145;43.118;25.694;2023-05-19T01:45:19;99540.19;;;14.68;97.16
33845;BME280;20145;43.118;25.694;2023-05-19T01:47:49;99536.81;;;14.64;97.23
33845;BME280;20145;43.118;25.694;2023-05-19T01:50:15;99533.38;;;14.64;97.82
33845;BME280;20145;43.118;25.694;2023-05-19T01:52:40;99541.09;;;14.67;97.27
33845;BME280;20145;43.118;25.694;2023-05-19T01:55:06;99534.34;;;14.60;97.10
33845;BME280;20145;43.118;25.694;2023-05-19T02:00:24;99555.53;;;14.77;96.93
33845;BME280;20145;43.118;25.694;2023-05-19T02:08:40;99568.91;;;14.63;98.03
33845;BME280;20145;43.118;25.694;2023-05-19T02:11:34;99573.44;;;14.55;97.32
33845;BME280;20145;43.118;25.694;2023-05-19T02:14:00;99575.13;;;14.56;97.24
33845;BME280;20145;43.118;25.694;2023-05-19T02:16:28;99578.56;;;14.57;99.69
33845;BME280;20145;43.118;25.694;2023-05-19T02:18:53;99577.88;;;14.48;97.83
33845;BME280;20145;43.118;25.694;2023-05-19T02:21:19;99577.22;;;14.40;99.44
33845;BME280;20145;43.118;25.694;2023-05-19T02:23:46;99564.47;;;14.31;98.19
33845;BME280;20145;43.118;25.694;2023-05-19T02:26:11;99587.66;;;14.39;98.46
33845;BME280;20145;43.118;25.694;2023-05-19T02:28:37;99586.16;;;14.30;98.82
33845;BME280;20145;43.118;25.694;2023-05-19T02:31:02;99590.44;;;14.29;98.94
33845;BME280;20145;43.118;25.694;2023-05-19T02:33:30;99598.38;;;14.25;99.05
33845;BME280;20145;43.118;25.694;2023-05-19T02:35:56;99602.75;;;14.21;98.68
33845;BME280;20145;43.118;25.694;2023-05-19T02:38:22;99599.44;;;14.16;99.04
33845;BME280;20145;43.118;25.694;2023-05-19T02:40:51;99601.38;;;14.08;100.00
33845;BME280;20145;43.118;25.694;2023-05-19T02:43:17;99607.34;;;14.10;99.82
33845;BME280;20145;43.118;25.694;2023-05-19T02:45:42;99603.03;;;14.11;100.00
33845;BME280;20145;43.118;25.694;2023-05-19T02:48:08;99607.34;;;14.12;100.00
33845;BME280;20145;43.118;25.694;2023-05-19T02:50:34;99619.47;;;14.11;100.00
33845;BME280;20145;43.118;25.694;2023-05-19T02:53:00;99618.66;;;14.07;100.00
33845;BME280;20145;43.118;25.694;2023-05-19T02:55:27;99605.91;;;13.98;100.00
33845;BME280;20145;43.118;25.694;2023-05-19T02:57:52;99612.09;;;13.93;100.00
33845;BME280;20145;43.118;25.694;2023-05-19T03:00:18;99616.41;;;13.92;100.00
33845;BME280;20145;43.118;25.694;2023-05-19T03:02:44;99619.00;;;13.92;100.00
33845;BME280;20145;43.118;25.694;2023-05-19T03:05:10;99613.81;;;13.92;100.00
33845;BME280;20145;43.118;25.694;2023-05-19T03:07:36;99606.06;;;13.91;100.00
33845;BME280;20145;43.118;25.694;2023-05-19T03:10:01;99616.34;;;13.97;100.00
33845;BME280;20145;43.118;25.694;2023-05-19T03:12:31;99616.38;;;13.94;100.00
33845;BME280;20145;43.118;25.694;2023-05-19T03:14:58;99623.22;;;13.96;100.00
33845;BME280;20145;43.118;25.694;2023-05-19T03:17:24;99626.72;;;13.95;100.00
33845;BME280;20145;43.118;25.694;2023-05-19T03:19:49;99627.63;;;13.94;100.00
33845;BME280;20145;43.118;25.694;2023-05-19T03:22:15;99633.53;;;13.99;100.00
33845;BME280;20145;43.118;25.694;2023-05-19T03:24:43;99635.03;;;14.11;100.00
33845;BME280;20145;43.118;25.694;2023-05-19T03:27:09;99632.44;;;14.10;100.00
33845;BME280;20145;43.118;25.694;2023-05-19T03:29:35;99641.91;;;14.12;100.00
33845;BME280;20145;43.118;25.694;2023-05-19T03:32:01;99644.25;;;14.23;100.00
33845;BME280;20145;43.118;25.694;2023-05-19T03:34:27;99640.59;;;14.32;100.00
33845;BME280;20145;43.118;25.694;2023-05-19T03:36:52;99638.78;;;14.35;100.00
33845;BME280;20145;43.118;25.694;2023-05-19T03:39:18;99650.63;;;14.47;100.00
33845;BME280;20145;43.118;25.694;2023-05-19T03:41:43;99640.06;;;14.55;100.00
33845;BME280;20145;43.118;25.694;2023-05-19T03:44:09;99644.72;;;14.78;100.00
33845;BME280;20145;43.118;25.694;2023-05-19T03:46:34;99644.13;;;14.99;100.00
33845;BME280;20145;43.118;25.694;2023-05-19T03:49:00;99635.47;;;15.00;97.82
33845;BME280;20145;43.118;25.694;2023-05-19T03:51:26;99651.03;;;15.33;96.51
33845;BME280;20145;43.118;25.694;2023-05-19T03:53:52;99644.56;;;15.48;95.63
33845;BME280;20145;43.118;25.694;2023-05-19T03:56:18;99654.16;;;15.77;94.33
33845;BME280;20145;43.118;25.694;2023-05-19T03:58:47;99652.66;;;15.98;93.89
33845;BME280;20145;43.118;25.694;2023-05-19T04:01:13;99659.06;;;16.16;91.74
33845;BME280;20145;43.118;25.694;2023-05-19T04:03:39;99660.75;;;16.45;91.35
33845;BME280;20145;43.118;25.694;2023-05-19T04:06:05;99659.00;;;16.72;90.53
33845;BME280;20145;43.118;25.694;2023-05-19T04:08:30;99673.66;;;17.01;88.47
33845;BME280;20145;43.118;25.694;2023-05-19T04:10:56;99680.88;;;17.20;87.09
33845;BME280;20145;43.118;25.694;2023-05-19T04:13:22;99670.91;;;17.31;85.33
33845;BME280;20145;43.118;25.694;2023-05-19T04:15:47;99660.13;;;17.40;85.17
33845;BME280;20145;43.118;25.694;2023-05-19T04:18:13;99670.94;;;17.78;83.54
33845;BME280;20145;43.118;25.694;2023-05-19T04:20:38;99676.97;;;18.03;82.28
33845;BME280;20145;43.118;25.694;2023-05-19T04:23:04;99674.81;;;17.91;81.59
33845;BME280;20145;43.118;25.694;2023-05-19T04:25:29;99673.13;;;18.12;80.56
33845;BME280;20145;43.118;25.694;2023-05-19T04:27:55;99674.59;;;17.74;80.61
33845;BME280;20145;43.118;25.694;2023-05-19T04:30:22;99674.78;;;17.68;81.32
33845;BME280;20145;43.118;25.694;2023-05-19T04:32:48;99665.53;;;17.35;82.49
33845;BME280;20145;43.118;25.694;2023-05-19T04:35:15;99674.84;;;17.43;82.84
33845;BME280;20145;43.118;25.694;2023-05-19T04:37:43;99680.34;;;17.35;83.45
33845;BME280;20145;43.118;25.694;2023-05-19T04:40:13;99675.81;;;17.64;82.70
33845;BME280;20145;43.118;25.694;2023-05-19T04:42:39;99678.31;;;17.67;81.01
33845;BME280;20145;43.118;25.694;2023-05-19T04:45:10;99671.94;;;17.50;81.79
33845;BME280;20145;43.118;25.694;2023-05-19T04:47:38;99663.81;;;17.34;81.19
33845;BME280;20145;43.118;25.694;2023-05-19T04:50:04;99693.34;;;17.60;81.93
33845;BME280;20145;43.118;25.694;2023-05-19T04:52:32;99685.19;;;17.69;81.34
33845;BME280;20145;43.118;25.694;2023-05-19T04:54:57;99683.78;;;17.84;81.07
33845;BME280;20145;43.118;25.694;2023-05-19T04:57:23;99686.22;;;17.89;80.81
33845;BME280;20145;43.118;25.694;2023-05-19T04:59:49;99695.06;;;17.36;82.49
33845;BME280;20145;43.118;25.694;2023-05-19T05:02:14;99693.44;;;17.57;83.31
33845;BME280;20145;43.118;25.694;2023-05-19T05:04:40;99700.81;;;17.94;81.79
33845;BME280;20145;43.118;25.694;2023-05-19T05:07:11;99704.31;;;18.17;81.01
33845;BME280;20145;43.118;25.694;2023-05-19T05:09:36;99707.47;;;17.78;81.01
33845;BME280;20145;43.118;25.694;2023-05-19T05:12:02;99700.66;;;17.50;81.87
33845;BME280;20145;43.118;25.694;2023-05-19T05:14:28;99676.47;;;17.22;83.27
33845;BME280;20145;43.118;25.694;2023-05-19T05:16:54;99703.25;;;17.00;84.41
33845;BME280;20145;43.118;25.694;2023-05-19T05:19:20;99701.13;;;17.11;85.02
33845;BME280;20145;43.118;25.694;2023-05-19T05:21:46;99715.50;;;17.23;84.82
33845;BME280;20145;43.118;25.694;2023-05-19T05:24:12;99709.28;;;17.27;84.80
33845;BME280;20145;43.118;25.694;2023-05-19T05:26:38;99708.16;;;17.34;83.21
33845;BME280;20145;43.118;25.694;2023-05-19T05:29:04;99703.06;;;17.31;83.19
33845;BME280;20145;43.118;25.694;2023-05-19T05:31:30;99714.81;;;17.68;82.34
33845;BME280;20145;43.118;25.694;2023-05-19T05:33:56;99710.69;;;17.86;81.69
33845;BME280;20145;43.118;25.694;2023-05-19T05:36:22;99712.34;;;17.89;81.57
33845;BME280;20145;43.118;25.694;2023-05-19T05:38:48;99727.94;;;17.65;82.27
33845;BME280;20145;43.118;25.694;2023-05-19T05:41:14;99715.94;;;17.61;82.22
33845;BME280;20145;43.118;25.694;2023-05-19T05:43:40;99733.00;;;17.70;82.71
33845;BME280;20145;43.118;25.694;2023-05-19T05:46:05;99725.66;;;17.81;81.87
33845;BME280;20145;43.118;25.694;2023-05-19T05:48:31;99723.50;;;17.92;82.23
33845;BME280;20145;43.118;25.694;2023-05-19T05:50:58;99726.66;;;18.02;81.82
33845;BME280;20145;43.118;25.694;2023-05-19T05:53:24;99731.75;;;18.05;81.94
33845;BME280;20145;43.118;25.694;2023-05-19T05:55:50;99739.50;;;18.06;81.25
33845;BME280;20145;43.118;25.694;2023-05-19T05:58:17;99742.31;;;18.02;81.03
33845;BME280;20145;43.118;25.694;2023-05-19T06:00:45;99734.28;;;18.06;81.93
33845;BME280;20145;43.118;25.694;2023-05-19T06:03:12;99748.31;;;18.27;80.81
33845;BME280;20145;43.118;25.694;2023-05-19T06:05:39;99741.72;;;18.17;81.22
33845;BME280;20145;43.118;25.694;2023-05-19T06:08:04;99745.84;;;18.23;81.37
33845;BME280;20145;43.118;25.694;2023-05-19T06:10:30;99746.53;;;18.28;80.28
33845;BME280;20145;43.118;25.694;2023-05-19T06:12:56;99740.03;;;18.16;80.79
33845;BME280;20145;43.118;25.694;2023-05-19T06:15:22;99747.38;;;18.28;80.82
33845;BME280;20145;43.118;25.694;2023-05-19T06:17:47;99744.06;;;18.47;80.51
33845;BME280;20145;43.118;25.694;2023-05-19T06:20:13;99748.13;;;18.32;81.39
33845;BME280;20145;43.118;25.694;2023-05-19T06:22:39;99749.72;;;18.58;81.13
33845;BME280;20145;43.118;25.694;2023-05-19T06:25:05;99752.53;;;18.76;81.29
33845;BME280;20145;43.118;25.694;2023-05-19T06:27:34;99743.16;;;18.70;79.81
33845;BME280;20145;43.118;25.694;2023-05-19T06:30:00;99749.13;;;18.73;79.66
33845;BME280;20145;43.118;25.694;2023-05-19T06:32:25;99743.56;;;18.59;79.17
33845;BME280;20145;43.118;25.694;2023-05-19T06:34:51;99754.59;;;18.89;79.27
33845;BME280;20145;43.118;25.694;2023-05-19T06:37:20;99763.66;;;18.81;80.17
33845;BME280;20145;43.118;25.694;2023-05-19T06:39:50;99760.81;;;18.87;78.20
33845;BME280;20145;43.118;25.694;2023-05-19T06:42:17;99768.06;;;18.80;78.88
33845;BME280;20145;43.118;25.694;2023-05-19T06:44:50;99771.59;;;19.01;78.47
33845;BME280;20145;43.118;25.694;2023-05-19T06:47:16;99761.72;;;19.08;78.60
33845;BME280;20145;43.118;25.694;2023-05-19T06:49:43;99766.94;;;19.08;78.39
33845;BME280;20145;43.118;25.694;2023-05-19T06:52:09;99762.19;;;19.38;77.66
33845;BME280;20145;43.118;25.694;2023-05-19T06:54:35;99762.31;;;19.55;76.85
33845;BME280;20145;43.118;25.694;2023-05-19T06:57:00;99775.22;;;19.60;74.67
33845;BME280;20145;43.118;25.694;2023-05-19T06:59:26;99774.22;;;19.42;75.96
33845;BME280;20145;43.118;25.694;2023-05-19T07:01:51;99771.59;;;19.63;75.14
33845;BME280;20145;43.118;25.694;2023-05-19T07:04:17;99779.22;;;19.48;73.80
33845;BME280;20145;43.118;25.694;2023-05-19T07:06:42;99771.22;;;20.11;74.32
33845;BME280;20145;43.118;25.694;2023-05-19T07:09:08;99766.31;;;20.79;71.22
33845;BME280;20145;43.118;25.694;2023-05-19T07:11:33;99768.66;;;21.03;70.44
33845;BME280;20145;43.118;25.694;2023-05-19T07:13:59;99773.28;;;20.61;70.92
33845;BME280;20145;43.118;25.694;2023-05-19T07:16:25;99772.91;;;20.50;72.23
33845;BME280;20145;43.118;25.694;2023-05-19T07:18:50;99780.28;;;20.42;71.91
33845;BME280;20145;43.118;25.694;2023-05-19T07:21:16;99775.41;;;20.72;72.25
33845;BME280;20145;43.118;25.694;2023-05-19T07:23:41;99775.34;;;20.74;70.80
33845;BME280;20145;43.118;25.694;2023-05-19T07:26:07;99781.13;;;20.42;70.97
33845;BME280;20145;43.118;25.694;2023-05-19T07:28:32;99781.75;;;20.47;71.57
33845;BME280;20145;43.118;25.694;2023-05-19T07:30:59;99789.16;;;20.58;70.21
33845;BME280;20145;43.118;25.694;2023-05-19T07:33:25;99776.16;;;20.36;71.56
33845;BME280;20145;43.118;25.694;2023-05-19T07:35:52;99784.06;;;20.55;70.50
33845;BME280;20145;43.118;25.694;2023-05-19T07:38:17;99780.25;;;20.62;69.67
33845;BME280;20145;43.118;25.694;2023-05-19T07:40:43;99790.63;;;20.45;70.85
33845;BME280;20145;43.118;25.694;2023-05-19T07:43:08;99779.53;;;20.40;70.29
33845;BME280;20145;43.118;25.694;2023-05-19T07:45:37;99774.63;;;20.51;71.22
33845;BME280;20145;43.118;25.694;2023-05-19T07:48:03;99786.34;;;20.99;71.02
33845;BME280;20145;43.118;25.694;2023-05-19T07:50:29;99780.94;;;21.02;70.94
33845;BME280;20145;43.118;25.694;2023-05-19T07:52:54;99785.13;;;21.24;69.43
33845;BME280;20145;43.118;25.694;2023-05-19T07:55:20;99777.50;;;20.83;69.46
33845;BME280;20145;43.118;25.694;2023-05-19T07:57:50;99794.19;;;20.63;71.66
33845;BME280;20145;43.118;25.694;2023-05-19T08:00:16;99781.09;;;20.63;69.85
33845;BME280;20145;43.118;25.694;2023-05-19T08:02:42;99788.94;;;20.82;70.74
33845;BME280;20145;43.118;25.694;2023-05-19T08:05:08;99783.84;;;20.96;68.99
33845;BME280;20145;43.118;25.694;2023-05-19T08:07:34;99792.06;;;21.07;68.80
33845;BME280;20145;43.118;25.694;2023-05-19T08:10:00;99786.16;;;21.38;69.64
33845;BME280;20145;43.118;25.694;2023-05-19T08:12:27;99790.91;;;21.82;67.15
33845;BME280;20145;43.118;25.694;2023-05-19T08:14:52;99784.47;;;21.37;67.78
33845;BME280;20145;43.118;25.694;2023-05-19T08:17:18;99791.91;;;21.28;68.87
33845;BME280;20145;43.118;25.694;2023-05-19T08:19:43;99787.00;;;21.56;68.38
33845;BME280;20145;43.118;25.694;2023-05-19T08:22:09;99786.59;;;21.64;68.25
33845;BME280;20145;43.118;25.694;2023-05-19T08:24:35;99789.09;;;21.67;66.58
33845;BME280;20145;43.118;25.694;2023-05-19T08:27:00;99790.50;;;21.40;67.22
33845;BME280;20145;43.118;25.694;2023-05-19T08:29:26;99794.00;;;21.21;68.77
33845;BME280;20145;43.118;25.694;2023-05-19T08:31:52;99786.91;;;21.23;67.98
33845;BME280;20145;43.118;25.694;2023-05-19T08:34:18;99783.97;;;21.29;67.50
33845;BME280;20145;43.118;25.694;2023-05-19T08:36:44;99774.94;;;21.35;65.77
33845;BME280;20145;43.118;25.694;2023-05-19T08:39:10;99784.75;;;21.66;66.21
33845;BME280;20145;43.118;25.694;2023-05-19T08:41:36;99782.28;;;21.63;65.43
33845;BME280;20145;43.118;25.694;2023-05-19T08:44:03;99783.19;;;21.10;68.50
33845;BME280;20145;43.118;25.694;2023-05-19T08:46:29;99785.31;;;20.84;69.46
33845;BME280;20145;43.118;25.694;2023-05-19T08:49:00;99783.41;;;21.05;68.67
33845;BME280;20145;43.118;25.694;2023-05-19T08:51:51;99785.34;;;21.02;69.00
33845;BME280;20145;43.118;25.694;2023-05-19T08:54:24;99781.50;;;21.61;68.45
33845;BME280;20145;43.118;25.694;2023-05-19T08:56:54;99785.41;;;21.70;66.75
33845;BME280;20145;43.118;25.694;2023-05-19T08:59:21;99790.69;;;21.52;67.98
33845;BME280;20145;43.118;25.694;2023-05-19T09:01:47;99780.88;;;21.56;67.92
33845;BME280;20145;43.118;25.694;2023-05-19T09:04:15;99783.66;;;21.53;67.61
33845;BME280;20145;43.118;25.694;2023-05-19T09:06:41;99778.50;;;21.51;68.26
33845;BME280;20145;43.118;25.694;2023-05-19T09:09:09;99765.22;;;21.54;68.70
33845;BME280;20145;43.118;25.694;2023-05-19T09:11:35;99770.88;;;21.80;67.35
33845;BME280;20145;43.118;25.694;2023-05-19T09:14:04;99773.44;;;21.81;68.52
33845;BME280;20145;43.118;25.694;2023-05-19T09:16:29;99778.53;;;21.85;66.69
33845;BME280;20145;43.118;25.694;2023-05-19T09:21:42;99779.72;;;21.95;68.84
33845;BME280;20145;43.118;25.694;2023-05-19T09:24:08;99784.06;;;22.29;67.94
33845;BME280;20145;43.118;25.694;2023-05-19T09:26:38;99781.78;;;22.39;65.53
33845;BME280;20145;43.118;25.694;2023-05-19T09:29:15;99782.03;;;22.50;65.87
33845;BME280;20145;43.118;25.694;2023-05-19T09:31:53;99781.72;;;22.07;66.37
33845;BME280;20145;43.118;25.694;2023-05-19T09:34:20;99774.19;;;21.83;68.14
33845;BME280;20145;43.118;25.694;2023-05-19T09:36:49;99765.56;;;21.97;69.92
33845;BME280;20145;43.118;25.694;2023-05-19T09:39:16;99762.72;;;22.02;68.28
33845;BME280;20145;43.118;25.694;2023-05-19T09:41:42;99768.22;;;21.97;68.78
33845;BME280;20145;43.118;25.694;2023-05-19T09:44:28;99769.03;;;21.82;66.92
33845;BME280;20145;43.118;25.694;2023-05-19T09:46:55;99765.97;;;21.74;68.30
33845;BME280;20145;43.118;25.694;2023-05-19T09:49:22;99758.97;;;21.90;69.51
33845;BME280;20145;43.118;25.694;2023-05-19T09:51:49;99756.63;;;22.01;69.29
33845;BME280;20145;43.118;25.694;2023-05-19T09:54:15;99756.66;;;22.17;68.07
33845;BME280;20145;43.118;25.694;2023-05-19T09:56:41;99760.53;;;22.10;67.50
33845;BME280;20145;43.118;25.694;2023-05-19T09:59:07;99756.78;;;21.98;66.95
33845;BME280;20145;43.118;25.694;2023-05-19T10:01:32;99748.63;;;21.87;66.85
33845;BME280;20145;43.118;25.694;2023-05-19T10:04:01;99759.31;;;21.84;66.58
33845;BME280;20145;43.118;25.694;2023-05-19T10:06:28;99753.03;;;21.87;65.71
33845;BME280;20145;43.118;25.694;2023-05-19T10:08:55;99736.53;;;22.00;66.39
33845;BME280;20145;43.118;25.694;2023-05-19T10:11:23;99757.34;;;22.21;67.36
33845;BME280;20145;43.118;25.694;2023-05-19T10:13:50;99742.69;;;22.33;68.20
33845;BME280;20145;43.118;25.694;2023-05-19T10:16:17;99750.75;;;22.45;64.59
33845;BME280;20145;43.118;25.694;2023-05-19T10:18:42;99752.69;;;22.42;64.44
33845;BME280;20145;43.118;25.694;2023-05-19T10:21:08;99737.94;;;22.39;63.78
33845;BME280;20145;43.118;25.694;2023-05-19T10:23:35;99738.25;;;22.65;63.91
33845;BME280;20145;43.118;25.694;2023-05-19T10:26:02;99730.16;;;23.14;61.75
33845;BME280;20145;43.118;25.694;2023-05-19T10:28:38;99739.81;;;23.29;62.29
33845;BME280;20145;43.118;25.694;2023-05-19T10:31:06;99733.59;;;23.30;62.05
33845;BME280;20145;43.118;25.694;2023-05-19T10:33:52;99730.03;;;23.17;63.02
33845;BME280;20145;43.118;25.694;2023-05-19T10:39:09;99721.22;;;23.02;63.56
33845;BME280;20145;43.118;25.694;2023-05-19T10:44:27;99711.22;;;23.37;63.85
33845;BME280;20145;43.118;25.694;2023-05-19T10:46:55;99700.50;;;23.69;61.84
33845;BME280;20145;43.118;25.694;2023-05-19T10:49:22;99701.66;;;23.94;62.26
33845;BME280;20145;43.118;25.694;2023-05-19T10:51:47;99695.25;;;24.12;63.18
33845;BME280;20145;43.118;25.694;2023-05-19T10:54:14;99705.53;;;24.30;60.48
33845;BME280;20145;43.118;25.694;2023-05-19T10:56:42;99709.56;;;23.65;58.05
33845;BME280;20145;43.118;25.694;2023-05-19T10:59:31;99695.75;;;23.62;57.17
33845;BME280;20145;43.118;25.694;2023-05-19T11:02:05;99693.56;;;23.68;57.40
33845;BME280;20145;43.118;25.694;2023-05-19T11:04:48;99683.00;;;24.11;56.15
33845;BME280;20145;43.118;25.694;2023-05-19T11:07:19;99681.59;;;24.06;58.03
33845;BME280;20145;43.118;25.694;2023-05-19T11:09:52;99680.91;;;24.16;57.82
33845;BME280;20145;43.118;25.694;2023-05-19T11:12:21;99668.94;;;23.84;58.28
33845;BME280;20145;43.118;25.694;2023-05-19T11:14:47;99662.78;;;23.83;59.24
33845;BME280;20145;43.118;25.694;2023-05-19T11:17:17;99668.38;;;23.78;58.02
33845;BME280;20145;43.118;25.694;2023-05-19T11:19:53;99666.31;;;23.84;58.75
33845;BME280;20145;43.118;25.694;2023-05-19T11:22:22;99672.63;;;24.08;57.13
33845;BME280;20145;43.118;25.694;2023-05-19T11:24:49;99656.38;;;24.01;58.72
33845;BME280;20145;43.118;25.694;2023-05-19T11:27:31;99661.88;;;24.25;58.84
33845;BME280;20145;43.118;25.694;2023-05-19T11:30:07;99665.19;;;24.15;58.31
33845;BME280;20145;43.118;25.694;2023-05-19T11:32:36;99668.94;;;24.25;56.79
33845;BME280;20145;43.118;25.694;2023-05-19T11:35:07;99659.38;;;24.37;57.02
33845;BME280;20145;43.118;25.694;2023-05-19T11:37:34;99652.25;;;24.79;56.19
33845;BME280;20145;43.118;25.694;2023-05-19T11:40:00;99648.47;;;24.96;56.15
33845;BME280;20145;43.118;25.694;2023-05-19T11:42:26;99651.63;;;24.88;57.40
33845;BME280;20145;43.118;25.694;2023-05-19T11:44:55;99635.03;;;24.73;56.68
33845;BME280;20145;43.118;25.694;2023-05-19T11:47:21;99615.84;;;25.09;56.08
33845;BME280;20145;43.118;25.694;2023-05-19T11:49:47;99630.31;;;25.42;56.86
33845;BME280;20145;43.118;25.694;2023-05-19T11:52:13;99623.91;;;25.33;55.22
33845;BME280;20145;43.118;25.694;2023-05-19T11:54:39;99621.88;;;25.24;54.26
33845;BME280;20145;43.118;25.694;2023-05-19T11:57:08;99617.06;;;24.65;55.11
33845;BME280;20145;43.118;25.694;2023-05-19T11:59:38;99621.38;;;24.66;55.80
33845;BME280;20145;43.118;25.694;2023-05-19T12:02:21;99622.78;;;24.72;56.36
33845;BME280;20145;43.118;25.694;2023-05-19T12:04:52;99618.59;;;24.55;54.24
33845;BME280;20145;43.118;25.694;2023-05-19T12:07:20;99623.16;;;24.53;55.11
33845;BME280;20145;43.118;25.694;2023-05-19T12:09:47;99622.84;;;24.58;54.84
33845;BME280;20145;43.118;25.694;2023-05-19T12:12:15;99610.28;;;24.48;53.39
33845;BME280;20145;43.118;25.694;2023-05-19T12:14:41;99619.78;;;24.51;54.67
33845;BME280;20145;43.118;25.694;2023-05-19T12:17:15;99613.88;;;24.60;54.85
33845;BME280;20145;43.118;25.694;2023-05-19T12:19:45;99615.25;;;24.66;54.47
33845;BME280;20145;43.118;25.694;2023-05-19T12:22:12;99614.53;;;24.77;54.43
33845;BME280;20145;43.118;25.694;2023-05-19T12:24:38;99616.72;;;24.57;55.08
33845;BME280;20145;43.118;25.694;2023-05-19T12:27:21;99602.50;;;24.73;55.42
33845;BME280;20145;43.118;25.694;2023-05-19T12:29:51;99610.22;;;24.76;54.99
33845;BME280;20145;43.118;25.694;2023-05-19T12:32:18;99578.53;;;24.76;53.37
33845;BME280;20145;43.118;25.694;2023-05-19T12:34:44;99604.53;;;24.95;53.05
33845;BME280;20145;43.118;25.694;2023-05-19T12:37:10;99591.00;;;24.99;52.68
33845;BME280;20145;43.118;25.694;2023-05-19T12:39:35;99599.47;;;25.04;52.70
33845;BME280;20145;43.118;25.694;2023-05-19T12:42:10;99611.28;;;25.11;52.31
33845;BME280;20145;43.118;25.694;2023-05-19T12:44:48;99604.53;;;25.07;52.32
33845;BME280;20145;43.118;25.694;2023-05-19T12:47:16;99594.72;;;25.09;51.76
33845;BME280;20145;43.118;25.694;2023-05-19T12:49:54;99589.66;;;24.81;52.91
33845;BME280;20145;43.118;25.694;2023-05-19T12:52:22;99598.88;;;24.61;54.08
33845;BME280;20145;43.118;25.694;2023-05-19T12:54:49;99593.94;;;24.56;54.65
33845;BME280;20145;43.118;25.694;2023-05-19T12:57:16;99588.72;;;24.42;54.68
33845;BME280;20145;43.118;25.694;2023-05-19T12:59:42;99586.03;;;24.29;55.19
33845;BME280;20145;43.118;25.694;2023-05-19T13:02:07;99574.19;;;24.22;55.44
33845;BME280;20145;43.118;25.694;2023-05-19T13:04:33;99563.84;;;24.19;56.36
33845;BME280;20145;43.118;25.694;2023-05-19T13:06:59;99583.34;;;24.16;56.31
33845;BME280;20145;43.118;25.694;2023-05-19T13:09:26;99663.25;;;24.04;55.83
33845;BME280;20145;43.118;25.694;2023-05-19T13:11:52;99670.31;;;21.94;66.15
33845;BME280;20145;43.118;25.694;2023-05-19T13:14:19;99648.69;;;20.71;73.54
33845;BME280;20145;43.118;25.694;2023-05-19T13:16:45;99662.13;;;19.91;80.31